createdAt,value
2023-01-20T00:00:26.354Z,7.37
2023-01-20T00:02:53.019Z,8.23
2023-01-20T00:05:19.639Z,7.33
2023-01-20T00:07:46.255Z,7.33
2023-01-20T00:10:12.909Z,7.23
2023-01-20T00:12:39.585Z,7.47
2023-01-20T00:15:07.136Z,7.47
2023-01-20T00:17:34.280Z,7.30
2023-01-20T00:20:00.874Z,8.03
2023-01-20T00:22:27.548Z,7.17
2023-01-20T00:24:54.130Z,7.53
2023-01-20T00:27:20.867Z,7.60
2023-01-20T00:29:47.473Z,6.33
2023-01-20T00:32:14.094Z,7.50
2023-01-20T00:34:40.685Z,7.93
2023-01-20T00:37:07.266Z,7.27
2023-01-20T00:39:33.910Z,8.80
2023-01-20T00:42:00.505Z,7.77
2023-01-20T00:44:27.078Z,7.17
2023-01-20T00:46:53.752Z,7.03
2023-01-20T00:49:20.531Z,6.47
2023-01-20T00:51:47.111Z,6.40
2023-01-20T00:54:13.736Z,6.23
2023-01-20T00:56:40.356Z,6.50
2023-01-20T00:59:08.934Z,6.53
2023-01-20T01:01:35.683Z,7.30
2023-01-20T01:04:02.328Z,7.20
2023-01-20T01:06:28.974Z,7.53
2023-01-20T01:08:57.070Z,7.00
2023-01-20T01:11:23.794Z,6.97
2023-01-20T01:13:50.402Z,7.83
2023-01-20T01:16:17.417Z,7.30
2023-01-20T01:18:44.231Z,8.07
2023-01-20T01:21:15.026Z,7.60
2023-01-20T01:23:42.215Z,8.60
2023-01-20T01:26:10.005Z,8.67
2023-01-20T01:28:36.631Z,9.10
2023-01-20T01:31:05.309Z,8.27
2023-01-20T01:33:32.137Z,7.73
2023-01-20T01:36:01.026Z,7.40
2023-01-20T01:38:29.192Z,7.23
2023-01-20T01:40:56.621Z,7.20
2023-01-20T01:43:28.147Z,6.90
2023-01-20T01:45:55.219Z,6.83
2023-01-20T01:48:36.797Z,6.00
2023-01-20T01:51:08.864Z,6.13
2023-01-20T01:53:42.956Z,6.03
2023-01-20T01:56:10.704Z,6.67
2023-01-20T01:58:41.671Z,6.10
2023-01-20T02:01:08.384Z,6.27
2023-01-20T02:03:57.966Z,6.40
2023-01-20T02:06:28.204Z,5.60
2023-01-20T02:08:55.068Z,6.60
2023-01-20T02:11:21.852Z,5.90
2023-01-20T02:13:48.549Z,6.40
2023-01-20T02:16:28.940Z,6.40
2023-01-20T02:19:09.356Z,7.50
2023-01-20T02:22:07.692Z,7.73
2023-01-20T02:24:49.511Z,7.53
2023-01-20T02:27:34.835Z,7.67
2023-01-20T02:30:20.436Z,8.43
2023-01-20T02:32:56.317Z,7.30
2023-01-20T02:35:37.284Z,8.87
2023-01-20T02:38:26.892Z,7.97
2023-01-20T02:41:02.816Z,8.07
2023-01-20T02:43:29.352Z,9.00
2023-01-20T02:46:08.959Z,8.00
2023-01-20T02:48:48.001Z,8.60
2023-01-20T02:51:21.646Z,8.03
2023-01-20T02:53:52.439Z,8.50
2023-01-20T02:56:23.377Z,8.93
2023-01-20T02:58:55.710Z,8.93
2023-01-20T03:01:33.197Z,8.37
2023-01-20T03:04:04.029Z,8.17
2023-01-20T03:06:37.914Z,8.50
2023-01-20T03:09:11.101Z,8.33
2023-01-20T03:11:43.680Z,7.83
2023-01-20T03:14:15.167Z,7.23
2023-01-20T03:16:42.623Z,7.27
2023-01-20T03:19:10.478Z,7.50
2023-01-20T03:21:37.159Z,6.73
2023-01-20T03:24:05.396Z,6.73
2023-01-20T03:26:32.152Z,7.03
2023-01-20T03:29:02.764Z,6.70
2023-01-20T03:31:39.623Z,7.93
2023-01-20T03:34:13.289Z,7.43
2023-01-20T03:36:43.610Z,7.60
2023-01-20T03:39:10.761Z,7.80
2023-01-20T03:42:00.638Z,7.83
2023-01-20T03:44:52.081Z,6.67
2023-01-20T03:47:37.168Z,6.57
2023-01-20T03:50:15.804Z,6.13
2023-01-20T03:52:54.135Z,7.07
2023-01-20T03:55:29.978Z,5.90
2023-01-20T03:58:03.409Z,6.63
2023-01-20T04:00:33.590Z,6.30
2023-01-20T04:03:05.567Z,6.43
2023-01-20T04:05:32.876Z,5.67
2023-01-20T04:08:03.451Z,5.97
2023-01-20T04:10:32.211Z,6.40
2023-01-20T04:12:58.900Z,6.57
2023-01-20T04:15:29.048Z,7.10
2023-01-20T04:17:56.899Z,6.67
2023-01-20T04:20:24.435Z,6.47
2023-01-20T04:22:57.196Z,7.57
2023-01-20T04:25:31.638Z,7.17
2023-01-20T04:27:58.421Z,6.50
2023-01-20T04:30:25.127Z,5.90
2023-01-20T04:32:51.753Z,7.20
2023-01-20T04:35:20.094Z,6.83
2023-01-20T04:37:46.766Z,7.13
2023-01-20T04:40:13.670Z,6.90
2023-01-20T04:42:40.374Z,7.67
2023-01-20T04:45:07.400Z,5.93
2023-01-20T04:47:34.228Z,7.17
2023-01-20T04:50:00.889Z,6.90
2023-01-20T04:52:27.618Z,6.47
2023-01-20T04:54:54.207Z,6.90
2023-01-20T04:57:20.892Z,7.10
2023-01-20T04:59:47.571Z,7.30
2023-01-20T05:02:14.181Z,6.60
2023-01-20T05:04:40.964Z,6.60
2023-01-20T05:07:07.643Z,6.67
2023-01-20T05:09:34.308Z,7.40
2023-01-20T05:12:01.176Z,7.80
2023-01-20T05:14:28.062Z,7.17
2023-01-20T05:16:54.894Z,7.00
2023-01-20T05:19:21.534Z,6.80
2023-01-20T05:21:48.169Z,6.83
2023-01-20T05:24:14.734Z,6.27
2023-01-20T05:26:41.336Z,6.30
2023-01-20T05:29:09.095Z,6.50
2023-01-20T05:31:37.553Z,6.07
2023-01-20T05:34:04.938Z,5.80
2023-01-20T05:36:32.739Z,6.13
2023-01-20T05:38:59.362Z,6.13
2023-01-20T05:41:26.060Z,7.20
2023-01-20T05:43:53.847Z,6.93
2023-01-20T05:46:21.101Z,6.57
2023-01-20T05:48:47.749Z,6.83
2023-01-20T05:51:14.529Z,6.50
2023-01-20T05:53:41.177Z,7.30
2023-01-20T05:56:08.240Z,7.30
2023-01-20T05:58:34.883Z,6.27
2023-01-20T06:01:06.848Z,7.03
2023-01-20T06:03:34.397Z,6.87
2023-01-20T06:06:06.935Z,7.03
2023-01-20T06:08:34.732Z,7.53
2023-01-20T06:11:02.382Z,7.03
2023-01-20T06:13:29.057Z,7.27
2023-01-20T06:15:55.892Z,7.30
2023-01-20T06:18:23.745Z,7.33
2023-01-20T06:20:50.444Z,8.27
2023-01-20T06:23:18.884Z,8.00
2023-01-20T06:25:45.457Z,7.77
2023-01-20T06:28:12.208Z,7.27
2023-01-20T06:30:38.909Z,7.53
2023-01-20T06:33:10.495Z,7.60
2023-01-20T06:35:37.701Z,7.53
2023-01-20T06:38:04.470Z,7.70
2023-01-20T06:40:31.588Z,8.10
2023-01-20T06:42:58.793Z,8.33
2023-01-20T06:45:25.445Z,8.17
2023-01-20T06:47:52.076Z,11.53
2023-01-20T06:50:18.847Z,24.90
2023-01-20T06:52:45.432Z,18.13
2023-01-20T06:55:12.043Z,11.07
2023-01-20T06:57:39.590Z,8.60
2023-01-20T07:00:07.015Z,9.43
2023-01-20T07:02:33.725Z,7.60
2023-01-20T07:05:00.585Z,8.10
2023-01-20T07:07:27.175Z,8.83
2023-01-20T07:09:54.944Z,9.23
2023-01-20T07:12:21.658Z,7.90
2023-01-20T07:14:48.471Z,8.47
2023-01-20T07:17:15.140Z,8.50
2023-01-20T07:19:41.800Z,10.23
2023-01-20T07:22:08.541Z,8.80
2023-01-20T07:24:35.458Z,8.43
2023-01-20T07:27:02.141Z,8.33
2023-01-20T07:29:28.830Z,8.83
2023-01-20T07:31:56.024Z,8.70
2023-01-20T07:34:22.791Z,8.03
2023-01-20T07:36:52.895Z,10.20
2023-01-20T07:39:20.202Z,9.93
2023-01-20T07:41:49.638Z,9.07
2023-01-20T07:44:16.625Z,9.37
2023-01-20T07:46:43.235Z,8.53
2023-01-20T07:49:12.348Z,8.23
2023-01-20T07:51:39.835Z,9.43
2023-01-20T07:54:06.701Z,7.77
2023-01-20T07:56:33.527Z,9.20
2023-01-20T07:59:00.441Z,9.73
2023-01-20T08:01:29.876Z,8.87
2023-01-20T08:03:57.855Z,8.77
2023-01-20T08:06:26.452Z,9.30
2023-01-20T08:08:53.841Z,9.87
2023-01-20T08:11:21.665Z,10.80
2023-01-20T08:13:49.126Z,9.87
2023-01-20T08:16:17.404Z,9.70
2023-01-20T08:18:44.508Z,9.30
2023-01-20T08:21:25.339Z,9.30
2023-01-20T08:23:54.558Z,9.37
2023-01-20T08:26:21.497Z,8.33
2023-01-20T08:28:48.203Z,8.93
2023-01-20T08:31:18.554Z,9.10
2023-01-20T08:33:45.476Z,8.63
2023-01-20T08:36:18.336Z,9.03
2023-01-20T08:38:46.193Z,7.67
2023-01-20T08:41:16.512Z,7.80
2023-01-20T08:43:43.293Z,8.13
2023-01-20T08:46:12.164Z,7.80
2023-01-20T08:48:40.171Z,8.07
2023-01-20T08:51:31.226Z,8.20
2023-01-20T08:53:58.702Z,8.90
2023-01-20T08:56:25.625Z,9.57
2023-01-20T08:58:53.828Z,10.10
2023-01-20T09:01:23.834Z,9.33
2023-01-20T09:04:04.421Z,9.47
2023-01-20T09:06:58.191Z,9.10
2023-01-20T09:09:24.793Z,8.33
2023-01-20T09:11:51.680Z,9.83
2023-01-20T09:14:23.448Z,9.30
2023-01-20T09:16:50.521Z,9.07
2023-01-20T09:19:17.444Z,9.30
2023-01-20T09:21:44.355Z,9.20
2023-01-20T09:24:11.098Z,8.90
2023-01-20T09:26:40.615Z,8.97
2023-01-20T09:29:11.197Z,9.27
2023-01-20T09:31:40.582Z,9.00
2023-01-20T09:34:07.365Z,8.63
2023-01-20T09:36:34.104Z,8.13
2023-01-20T09:39:19.482Z,8.13
2023-01-20T09:42:07.165Z,8.48
2023-01-20T09:44:55.266Z,8.03
2023-01-20T09:47:41.874Z,7.80
2023-01-20T09:50:33.788Z,7.47
2023-01-20T09:53:25.617Z,7.83
2023-01-20T09:55:56.894Z,7.87
2023-01-20T09:58:42.221Z,7.47
2023-01-20T10:01:13.638Z,7.63
2023-01-20T10:03:55.767Z,8.43
2023-01-20T10:06:37.579Z,8.63
2023-01-20T10:09:21.151Z,9.07
2023-01-20T10:11:49.362Z,8.40
2023-01-20T10:14:27.051Z,9.23
2023-01-20T10:16:59.787Z,7.40
2023-01-20T10:19:32.923Z,7.53
2023-01-20T10:22:20.599Z,7.93
2023-01-20T10:24:52.988Z,8.40
2023-01-20T10:27:19.604Z,12.03
2023-01-20T10:29:56.717Z,8.23
2023-01-20T10:32:33.390Z,11.57
2023-01-20T10:35:16.230Z,12.03
2023-01-20T10:37:43.089Z,10.13
2023-01-20T10:40:35.133Z,8.70
2023-01-20T10:43:11.218Z,7.43
2023-01-20T10:46:05.972Z,12.73
2023-01-20T10:48:58.552Z,7.70
2023-01-20T10:51:40.430Z,7.30
2023-01-20T10:54:35.639Z,6.93
2023-01-20T10:57:05.542Z,7.73
2023-01-20T10:59:37.585Z,7.10
2023-01-20T11:02:16.601Z,7.27
2023-01-20T11:04:45.592Z,6.97
2023-01-20T11:07:19.116Z,5.90
2023-01-20T11:09:47.937Z,5.80
2023-01-20T11:12:22.026Z,7.07
2023-01-20T11:14:48.900Z,7.10
2023-01-20T11:17:20.215Z,7.07
2023-01-20T11:20:03.986Z,8.90
2023-01-20T11:22:34.207Z,7.80
2023-01-20T11:25:04.116Z,6.93
2023-01-20T11:27:46.095Z,6.97
2023-01-20T11:30:34.361Z,11.07
2023-01-20T11:33:22.114Z,10.70
2023-01-20T11:35:59.151Z,11.13
2023-01-20T11:38:30.019Z,6.67
2023-01-20T11:40:57.438Z,6.90
2023-01-20T11:43:33.997Z,7.13
2023-01-20T11:46:16.425Z,6.07
2023-01-20T11:48:43.179Z,6.10
2023-01-20T11:51:27.102Z,6.27
2023-01-20T11:54:18.419Z,6.20
2023-01-20T11:56:49.101Z,6.60
2023-01-20T11:59:36.220Z,6.00
2023-01-20T12:02:08.939Z,6.40
2023-01-20T12:04:49.123Z,6.03
2023-01-20T12:07:24.207Z,5.87
2023-01-20T12:09:55.114Z,6.10
2023-01-20T12:12:41.301Z,5.20
2023-01-20T12:15:20.973Z,7.00
2023-01-20T12:18:09.607Z,5.90
2023-01-20T12:21:07.851Z,7.10
2023-01-20T12:23:56.932Z,4.60
2023-01-20T12:26:25.151Z,5.90
2023-01-20T12:29:18.122Z,5.50
2023-01-20T12:31:48.923Z,6.07
2023-01-20T12:34:20.025Z,5.20
2023-01-20T12:36:59.660Z,6.17
2023-01-20T12:39:32.047Z,6.47
2023-01-20T12:42:10.108Z,6.73
2023-01-20T12:44:57.131Z,7.03
2023-01-20T12:47:23.679Z,6.27
2023-01-20T12:50:04.079Z,7.27
2023-01-20T12:53:06.387Z,6.20
2023-01-20T12:55:45.214Z,10.10
2023-01-20T12:58:37.035Z,6.83
2023-01-20T13:01:12.911Z,9.40
2023-01-20T13:04:05.090Z,10.13
2023-01-20T13:06:42.356Z,8.03
2023-01-20T13:09:18.225Z,8.40
2023-01-20T13:12:29.634Z,8.27
2023-01-20T13:15:13.519Z,7.10
2023-01-20T13:18:00.582Z,7.93
2023-01-20T13:20:28.864Z,7.47
2023-01-20T13:22:58.627Z,9.77
2023-01-20T13:25:26.158Z,7.23
2023-01-20T13:27:54.825Z,8.33
2023-01-20T13:30:36.809Z,7.93
2023-01-20T13:33:08.617Z,6.40
2023-01-20T13:35:46.177Z,7.73
2023-01-20T13:38:30.622Z,15.20
2023-01-20T13:41:03.046Z,10.30
2023-01-20T13:43:34.151Z,7.83
2023-01-20T13:46:03.555Z,12.73
2023-01-20T13:48:32.056Z,7.20
2023-01-20T13:51:26.763Z,5.97
2023-01-20T13:53:53.480Z,6.97
2023-01-20T13:56:23.242Z,7.93
2023-01-20T13:58:50.199Z,6.20
2023-01-20T14:01:16.831Z,6.33
2023-01-20T14:03:43.592Z,6.63
2023-01-20T14:06:12.420Z,6.10
2023-01-20T14:08:41.840Z,5.77
2023-01-20T14:11:23.442Z,5.97
2023-01-20T14:14:01.932Z,5.37
2023-01-20T14:16:30.324Z,5.93
2023-01-20T14:19:00.191Z,5.93
2023-01-20T14:21:29.640Z,6.47
2023-01-20T14:23:56.848Z,5.80
2023-01-20T14:26:26.836Z,5.03
2023-01-20T14:29:01.611Z,7.07
2023-01-20T14:31:42.632Z,5.10
2023-01-20T14:34:30.678Z,5.67
2023-01-20T14:36:59.669Z,6.13
2023-01-20T14:39:30.115Z,5.17
2023-01-20T14:42:01.238Z,6.30
2023-01-20T14:44:30.692Z,5.53
2023-01-20T14:46:59.155Z,7.87
2023-01-20T14:49:36.296Z,5.50
2023-01-20T14:52:04.635Z,5.23
2023-01-20T14:54:34.044Z,6.27
2023-01-20T14:57:12.541Z,7.90
2023-01-20T14:59:39.181Z,7.90
2023-01-20T15:02:14.680Z,11.47
2023-01-20T15:04:41.271Z,9.07
2023-01-20T15:07:18.228Z,8.13
2023-01-20T15:09:52.245Z,11.50
2023-01-20T15:12:42.348Z,9.03
2023-01-20T15:15:08.861Z,12.60
2023-01-20T15:17:35.477Z,7.83
2023-01-20T15:20:02.201Z,11.03
2023-01-20T15:22:30.569Z,6.97
2023-01-20T15:25:12.332Z,8.90
2023-01-20T15:27:39.615Z,6.97
2023-01-20T15:30:21.631Z,7.83
2023-01-20T15:32:49.013Z,6.97
2023-01-20T15:35:17.332Z,7.67
2023-01-20T15:37:44.496Z,8.00
2023-01-20T15:40:20.014Z,8.67
2023-01-20T15:42:48.218Z,7.10
2023-01-20T15:45:16.586Z,5.73
2023-01-20T15:47:45.761Z,6.80
2023-01-20T15:50:21.353Z,6.57
2023-01-20T15:52:48.434Z,8.13
2023-01-20T15:55:17.247Z,9.87
2023-01-20T15:57:47.261Z,7.53
2023-01-20T16:00:19.885Z,6.60
2023-01-20T16:02:46.725Z,5.90
2023-01-20T16:05:16.345Z,7.80
2023-01-20T16:07:44.277Z,7.17
2023-01-20T16:10:16.312Z,6.13
2023-01-20T16:12:43.944Z,7.47
2023-01-20T16:15:15.444Z,7.80
2023-01-20T16:17:42.339Z,7.00
2023-01-20T16:20:20.211Z,7.07
2023-01-20T16:22:46.839Z,8.10
2023-01-20T16:25:13.858Z,7.77
2023-01-20T16:27:40.517Z,7.10
2023-01-20T16:30:10.809Z,11.20
2023-01-20T16:32:37.505Z,7.73
2023-01-20T16:35:04.717Z,8.73
2023-01-20T16:37:31.445Z,7.00
2023-01-20T16:39:58.234Z,6.90
2023-01-20T16:42:24.950Z,7.03
2023-01-20T16:44:52.687Z,6.70
2023-01-20T16:47:19.257Z,7.67
2023-01-20T16:49:45.999Z,6.47
2023-01-20T16:52:13.918Z,7.60
2023-01-20T16:54:40.596Z,7.50
2023-01-20T16:57:07.408Z,7.20
2023-01-20T16:59:34.240Z,6.80
2023-01-20T17:02:01.473Z,6.80
2023-01-20T17:04:29.523Z,6.07
2023-01-20T17:06:57.649Z,6.87
2023-01-20T17:09:24.589Z,7.30
2023-01-20T17:11:51.257Z,7.03
2023-01-20T17:14:18.081Z,6.50
2023-01-20T17:16:44.722Z,7.00
2023-01-20T17:19:13.061Z,6.27
2023-01-20T17:21:40.012Z,6.07
2023-01-20T17:24:07.506Z,7.20
2023-01-20T17:26:34.514Z,6.37
2023-01-20T17:29:03.583Z,7.30
2023-01-20T17:31:36.856Z,7.03
2023-01-20T17:34:05.076Z,7.63
2023-01-20T17:36:34.541Z,7.77
2023-01-20T17:39:03.048Z,7.30
2023-01-20T17:41:30.077Z,7.87
2023-01-20T17:43:57.023Z,8.07
2023-01-20T17:46:28.975Z,7.80
2023-01-20T17:48:57.477Z,10.90
2023-01-20T17:51:27.288Z,12.27
2023-01-20T17:53:54.679Z,9.83
2023-01-20T17:56:22.581Z,8.70
2023-01-20T17:58:50.549Z,10.13
2023-01-20T18:01:26.370Z,8.37
2023-01-20T18:03:55.082Z,7.90
2023-01-20T18:06:24.631Z,8.77
2023-01-20T18:08:57.352Z,9.70
2023-01-20T18:11:25.600Z,8.80
2023-01-20T18:13:57.387Z,8.63
2023-01-20T18:16:28.372Z,14.07
2023-01-20T18:18:58.801Z,14.70
2023-01-20T18:21:31.221Z,14.33
2023-01-20T18:23:59.603Z,10.30
2023-01-20T18:26:30.417Z,9.47
2023-01-20T18:29:00.124Z,12.40
2023-01-20T18:31:29.063Z,13.00
2023-01-20T18:33:58.491Z,16.37
2023-01-20T18:36:32.882Z,14.97
2023-01-20T18:39:02.486Z,13.17
2023-01-20T18:41:31.298Z,10.67
2023-01-20T18:43:58.350Z,11.40
2023-01-20T18:46:26.281Z,10.37
2023-01-20T18:48:54.553Z,11.27
2023-01-20T18:51:27.317Z,11.13
2023-01-20T18:53:56.827Z,9.23
2023-01-20T18:56:25.027Z,10.97
2023-01-20T18:58:52.854Z,19.23
2023-01-20T19:01:21.839Z,16.83
2023-01-20T19:03:49.446Z,11.97
2023-01-20T19:06:18.981Z,13.13
2023-01-20T19:08:48.162Z,14.70
2023-01-20T19:11:19.467Z,13.47
2023-01-20T19:13:49.783Z,12.00
2023-01-20T19:16:19.231Z,8.87
2023-01-20T19:18:56.774Z,12.70
2023-01-20T19:21:25.532Z,10.33
2023-01-20T19:23:56.715Z,14.33
2023-01-20T19:26:25.801Z,11.97
2023-01-20T19:29:02.267Z,11.20
2023-01-20T19:31:31.487Z,11.03
2023-01-20T19:33:58.589Z,10.03
2023-01-20T19:36:26.163Z,7.90
2023-01-20T19:38:53.130Z,10.07
2023-01-20T19:41:28.440Z,10.70
2023-01-20T19:43:57.436Z,9.90
2023-01-20T19:46:27.244Z,9.47
2023-01-20T19:48:56.427Z,8.60
2023-01-20T19:51:23.696Z,11.00
2023-01-20T19:53:55.602Z,9.70
2023-01-20T19:56:22.883Z,8.67
2023-01-20T19:58:52.237Z,8.93
2023-01-20T20:01:27.137Z,9.60
2023-01-20T20:03:54.957Z,9.60
2023-01-20T20:06:27.873Z,9.27
2023-01-20T20:09:01.759Z,8.90
2023-01-20T20:11:29.781Z,8.67
2023-01-20T20:13:58.446Z,8.93
2023-01-20T20:16:29.987Z,11.37
2023-01-20T20:18:57.564Z,8.13
2023-01-20T20:21:25.737Z,7.80
2023-01-20T20:23:57.311Z,8.40
2023-01-20T20:26:28.658Z,7.83
2023-01-20T20:28:57.966Z,8.10
2023-01-20T20:31:29.333Z,6.50
2023-01-20T20:33:58.488Z,7.40
2023-01-20T20:36:28.133Z,6.97
2023-01-20T20:38:55.131Z,7.10
2023-01-20T20:41:22.377Z,6.83
2023-01-20T20:43:49.344Z,6.40
2023-01-20T20:46:16.632Z,6.93
2023-01-20T20:48:43.276Z,6.50
2023-01-20T20:51:13.403Z,7.30
2023-01-20T20:53:40.536Z,7.53
2023-01-20T20:56:15.225Z,7.33
2023-01-20T20:59:00.509Z,7.97
2023-01-20T21:01:30.182Z,7.10
2023-01-20T21:03:57.882Z,7.60
2023-01-20T21:06:25.748Z,7.80
2023-01-20T21:08:52.955Z,7.60
2023-01-20T21:11:20.555Z,6.97
2023-01-20T21:13:49.296Z,7.47
2023-01-20T21:16:20.896Z,8.07
2023-01-20T21:18:48.779Z,12.73
2023-01-20T21:21:17.024Z,9.97
2023-01-20T21:23:48.049Z,11.27
2023-01-20T21:26:14.675Z,10.77
2023-01-20T21:28:42.652Z,8.53
2023-01-20T21:31:11.375Z,8.33
2023-01-20T21:33:39.813Z,9.80
2023-01-20T21:36:08.947Z,10.60
2023-01-20T21:38:37.409Z,11.67
2023-01-20T21:41:09.838Z,10.23
2023-01-20T21:43:57.937Z,12.50
2023-01-20T21:46:27.497Z,9.30
2023-01-20T21:49:23.731Z,8.13
2023-01-20T21:52:08.792Z,10.30
2023-01-20T21:54:35.648Z,7.80
2023-01-20T21:57:02.391Z,9.33
2023-01-20T21:59:29.143Z,7.57
2023-01-20T22:01:56.076Z,8.03
2023-01-20T22:04:22.814Z,7.70
2023-01-20T22:06:49.458Z,8.40
2023-01-20T22:09:16.114Z,6.13
2023-01-20T22:11:42.717Z,7.70
2023-01-20T22:14:10.728Z,6.93
2023-01-20T22:16:37.520Z,6.83
2023-01-20T22:19:04.814Z,6.00
2023-01-20T22:21:32.757Z,6.10
2023-01-20T22:24:01.980Z,5.80
2023-01-20T22:26:28.682Z,5.53
2023-01-20T22:28:55.379Z,5.37
2023-01-20T22:31:23.929Z,6.10
2023-01-20T22:33:54.973Z,5.30
2023-01-20T22:36:22.884Z,6.30
2023-01-20T22:38:51.270Z,5.97
2023-01-20T22:41:19.245Z,5.50
2023-01-20T22:43:47.832Z,6.83
2023-01-20T22:46:17.044Z,7.10
2023-01-20T22:48:44.822Z,9.97
2023-01-20T22:51:20.070Z,8.57
2023-01-20T22:53:47.043Z,8.53
2023-01-20T22:56:24.967Z,8.53
2023-01-20T22:58:51.753Z,10.60
2023-01-20T23:01:24.205Z,9.47
2023-01-20T23:03:56.232Z,7.00
2023-01-20T23:06:23.938Z,7.47
2023-01-20T23:08:50.623Z,8.73
2023-01-20T23:11:19.757Z,8.53
2023-01-20T23:13:46.822Z,7.87
2023-01-20T23:16:19.537Z,9.10
2023-01-20T23:18:47.064Z,6.90
2023-01-20T23:21:13.867Z,9.10
2023-01-20T23:23:40.603Z,9.30
2023-01-20T23:26:15.259Z,8.70
2023-01-20T23:28:43.750Z,10.37
2023-01-20T23:31:12.946Z,8.13
2023-01-20T23:33:43.417Z,7.83
2023-01-20T23:36:21.634Z,7.80
2023-01-20T23:38:48.341Z,8.80
2023-01-20T23:41:15.622Z,7.57
2023-01-20T23:43:42.558Z,8.33
2023-01-20T23:46:10.027Z,6.50
2023-01-20T23:48:36.940Z,7.27
2023-01-20T23:51:05.935Z,7.70
2023-01-20T23:53:36.607Z,6.03
2023-01-20T23:56:06.356Z,6.53
2023-01-20T23:58:33.223Z,7.30
